sensor_id;sensor_type;location;lat;lon;timestamp;pressure;altitude;pressure_sealevel;temperature;humidity
51271;BME280;37744;50.960;4.136;2022-08-26T00:01:18;101198.81;;;20.30;91.92
51271;BME280;37744;50.960;4.136;2022-08-26T00:03:44;101198.81;;;20.30;92.42
51271;BME280;37744;50.960;4.136;2022-08-26T00:06:09;101185.25;;;20.21;92.55
51271;BME280;37744;50.960;4.136;2022-08-26T00:08:34;101180.38;;;20.14;92.94
51271;BME280;37744;50.960;4.136;2022-08-26T00:11:01;101184.06;;;20.25;92.80
51271;BME280;37744;50.960;4.136;2022-08-26T00:13:30;101191.25;;;20.24;92.94
51271;BME280;37744;50.960;4.136;2022-08-26T00:15:58;101188.69;;;20.10;93.96
51271;BME280;37744;50.960;4.136;2022-08-26T00:18:25;101193.81;;;20.13;93.69
51271;BME280;37744;50.960;4.136;2022-08-26T00:20:54;101204.03;;;20.19;94.05
51271;BME280;37744;50.960;4.136;2022-08-26T00:23:23;101206.69;;;20.19;93.84
51271;BME280;37744;50.960;4.136;2022-08-26T00:25:53;101200.00;;;20.26;93.83
51271;BME280;37744;50.960;4.136;2022-08-26T00:28:18;101195.09;;;20.20;94.35
51271;BME280;37744;50.960;4.136;2022-08-26T00:30:45;101201.16;;;20.22;94.58
51271;BME280;37744;50.960;4.136;2022-08-26T00:33:15;101194.03;;;20.10;95.88
51271;BME280;37744;50.960;4.136;2022-08-26T00:35:42;101205.31;;;20.00;96.87
51271;BME280;37744;50.960;4.136;2022-08-26T00:38:08;101202.94;;;19.96;97.23
51271;BME280;37744;50.960;4.136;2022-08-26T00:40:38;101202.84;;;19.97;97.61
51271;BME280;37744;50.960;4.136;2022-08-26T00:43:08;101204.00;;;19.93;97.84
51271;BME280;37744;50.960;4.136;2022-08-26T00:45:48;101208.50;;;19.93;98.43
51271;BME280;37744;50.960;4.136;2022-08-26T00:48:19;101196.56;;;19.98;97.87
51271;BME280;37744;50.960;4.136;2022-08-26T00:50:54;101210.44;;;20.04;97.63
51271;BME280;37744;50.960;4.136;2022-08-26T00:53:22;101204.00;;;19.93;98.13
51271;BME280;37744;50.960;4.136;2022-08-26T00:56:05;101202.69;;;19.86;98.70
51271;BME280;37744;50.960;4.136;2022-08-26T00:58:36;101195.63;;;19.72;100.00
51271;BME280;37744;50.960;4.136;2022-08-26T01:01:04;101204.81;;;19.81;99.68
51271;BME280;37744;50.960;4.136;2022-08-26T01:03:33;101194.50;;;19.89;99.33
51271;BME280;37744;50.960;4.136;2022-08-26T01:06:00;101196.41;;;19.87;99.53
51271;BME280;37744;50.960;4.136;2022-08-26T01:08:28;101200.56;;;19.91;98.92
51271;BME280;37744;50.960;4.136;2022-08-26T01:10:56;101194.88;;;19.83;99.66
51271;BME280;37744;50.960;4.136;2022-08-26T01:13:31;101193.41;;;19.79;99.64
51271;BME280;37744;50.960;4.136;2022-08-26T01:16:00;101188.41;;;19.87;99.42
51271;BME280;37744;50.960;4.136;2022-08-26T01:18:27;101196.28;;;19.76;99.75
51271;BME280;37744;50.960;4.136;2022-08-26T01:21:11;101192.84;;;19.73;99.96
51271;BME280;37744;50.960;4.136;2022-08-26T01:23:41;101193.91;;;19.71;99.69
51271;BME280;37744;50.960;4.136;2022-08-26T01:26:15;101186.22;;;19.66;99.74
51271;BME280;37744;50.960;4.136;2022-08-26T01:28:43;101187.72;;;19.70;99.90
51271;BME280;37744;50.960;4.136;2022-08-26T01:31:15;101191.78;;;19.63;100.00
51271;BME280;37744;50.960;4.136;2022-08-26T01:36:33;101192.53;;;19.65;100.00
51271;BME280;37744;50.960;4.136;2022-08-26T01:39:02;101185.66;;;19.61;100.00
51271;BME280;37744;50.960;4.136;2022-08-26T01:41:28;101202.22;;;19.66;100.00
51271;BME280;37744;50.960;4.136;2022-08-26T01:43:57;101200.31;;;19.68;100.00
51271;BME280;37744;50.960;4.136;2022-08-26T01:46:25;101201.66;;;19.61;100.00
51271;BME280;37744;50.960;4.136;2022-08-26T01:48:56;101200.09;;;19.71;100.00
51271;BME280;37744;50.960;4.136;2022-08-26T01:51:24;101213.22;;;19.74;100.00
51271;BME280;37744;50.960;4.136;2022-08-26T01:53:51;101212.00;;;19.66;100.00
51271;BME280;37744;50.960;4.136;2022-08-26T01:56:21;101207.28;;;19.56;100.00
51271;BME280;37744;50.960;4.136;2022-08-26T01:58:53;101220.94;;;19.52;100.00
51271;BME280;37744;50.960;4.136;2022-08-26T02:01:23;101213.69;;;19.54;100.00
51271;BME280;37744;50.960;4.136;2022-08-26T02:04:22;101213.50;;;19.57;100.00
51271;BME280;37744;50.960;4.136;2022-08-26T02:06:53;101214.97;;;19.61;100.00
51271;BME280;37744;50.960;4.136;2022-08-26T02:09:22;101220.97;;;19.65;100.00
51271;BME280;37744;50.960;4.136;2022-08-26T02:11:48;101219.06;;;19.67;100.00
51271;BME280;37744;50.960;4.136;2022-08-26T02:14:18;101220.44;;;19.72;99.89
51271;BME280;37744;50.960;4.136;2022-08-26T02:16:50;101213.88;;;19.51;100.00
51271;BME280;37744;50.960;4.136;2022-08-26T02:19:26;101222.69;;;19.38;100.00
51271;BME280;37744;50.960;4.136;2022-08-26T02:21:58;101216.53;;;19.51;100.00
51271;BME280;37744;50.960;4.136;2022-08-26T02:24:28;101225.31;;;19.53;100.00
51271;BME280;37744;50.960;4.136;2022-08-26T02:26:56;101218.59;;;19.60;100.00
51271;BME280;37744;50.960;4.136;2022-08-26T02:29:34;101223.47;;;19.40;100.00
51271;BME280;37744;50.960;4.136;2022-08-26T02:32:06;101220.69;;;19.42;100.00
51271;BME280;37744;50.960;4.136;2022-08-26T02:34:35;101219.41;;;19.48;100.00
51271;BME280;37744;50.960;4.136;2022-08-26T02:37:04;101224.88;;;19.46;100.00
51271;BME280;37744;50.960;4.136;2022-08-26T02:39:33;101235.63;;;19.44;100.00
51271;BME280;37744;50.960;4.136;2022-08-26T02:42:01;101231.09;;;19.32;100.00
51271;BME280;37744;50.960;4.136;2022-08-26T02:44:28;101227.09;;;19.39;100.00
51271;BME280;37744;50.960;4.136;2022-08-26T02:46:56;101224.22;;;19.42;100.00
51271;BME280;37744;50.960;4.136;2022-08-26T02:49:22;101224.00;;;19.45;100.00
51271;BME280;37744;50.960;4.136;2022-08-26T02:51:49;101224.53;;;19.51;100.00
51271;BME280;37744;50.960;4.136;2022-08-26T02:54:19;101226.28;;;19.52;100.00
51271;BME280;37744;50.960;4.136;2022-08-26T02:56:48;101223.91;;;19.47;100.00
51271;BME280;37744;50.960;4.136;2022-08-26T02:59:21;101224.22;;;19.55;100.00
51271;BME280;37744;50.960;4.136;2022-08-26T03:01:57;101218.06;;;19.55;100.00
51271;BME280;37744;50.960;4.136;2022-08-26T03:04:26;101215.63;;;19.52;100.00
51271;BME280;37744;50.960;4.136;2022-08-26T03:06:54;101210.44;;;19.36;100.00
51271;BME280;37744;50.960;4.136;2022-08-26T03:09:23;101210.06;;;19.27;100.00
51271;BME280;37744;50.960;4.136;2022-08-26T03:11:50;101213.41;;;19.31;100.00
51271;BME280;37744;50.960;4.136;2022-08-26T03:14:19;101212.81;;;19.40;100.00
51271;BME280;37744;50.960;4.136;2022-08-26T03:16:45;101209.97;;;19.29;100.00
51271;BME280;37744;50.960;4.136;2022-08-26T03:19:12;101213.19;;;19.34;100.00
51271;BME280;37744;50.960;4.136;2022-08-26T03:21:40;101220.97;;;19.37;100.00
51271;BME280;37744;50.960;4.136;2022-08-26T03:24:09;101218.88;;;19.42;100.00
51271;BME280;37744;50.960;4.136;2022-08-26T03:26:37;101207.25;;;19.43;100.00
51271;BME280;37744;50.960;4.136;2022-08-26T03:29:05;101205.75;;;19.39;100.00
51271;BME280;37744;50.960;4.136;2022-08-26T03:31:52;101211.63;;;19.44;100.00
51271;BME280;37744;50.960;4.136;2022-08-26T03:34:22;101205.00;;;19.37;100.00
51271;BME280;37744;50.960;4.136;2022-08-26T03:36:49;101200.44;;;19.39;100.00
51271;BME280;37744;50.960;4.136;2022-08-26T03:39:15;101196.47;;;19.32;100.00
51271;BME280;37744;50.960;4.136;2022-08-26T03:41:42;101193.34;;;19.25;100.00
51271;BME280;37744;50.960;4.136;2022-08-26T03:44:11;101194.13;;;19.13;100.00
51271;BME280;37744;50.960;4.136;2022-08-26T03:46:37;101199.06;;;19.19;100.00
51271;BME280;37744;50.960;4.136;2022-08-26T03:49:06;101201.88;;;19.30;100.00
51271;BME280;37744;50.960;4.136;2022-08-26T03:51:36;101206.53;;;19.27;100.00
51271;BME280;37744;50.960;4.136;2022-08-26T03:54:06;101198.97;;;19.21;100.00
51271;BME280;37744;50.960;4.136;2022-08-26T03:56:34;101208.66;;;19.22;100.00
51271;BME280;37744;50.960;4.136;2022-08-26T03:59:01;101196.75;;;19.27;100.00
51271;BME280;37744;50.960;4.136;2022-08-26T04:01:27;101198.47;;;19.28;100.00
51271;BME280;37744;50.960;4.136;2022-08-26T04:03:56;101189.47;;;19.16;100.00
51271;BME280;37744;50.960;4.136;2022-08-26T04:06:31;101189.47;;;19.16;100.00
51271;BME280;37744;50.960;4.136;2022-08-26T04:09:00;101192.69;;;19.22;100.00
51271;BME280;37744;50.960;4.136;2022-08-26T04:11:29;101192.47;;;19.25;100.00
51271;BME280;37744;50.960;4.136;2022-08-26T04:14:01;101194.59;;;19.20;100.00
51271;BME280;37744;50.960;4.136;2022-08-26T04:16:30;101197.63;;;19.13;100.00
51271;BME280;37744;50.960;4.136;2022-08-26T04:18:56;101198.81;;;19.09;100.00
51271;BME280;37744;50.960;4.136;2022-08-26T04:21:25;101186.06;;;19.00;100.00
51271;BME280;37744;50.960;4.136;2022-08-26T04:23:59;101192.31;;;18.99;100.00
51271;BME280;37744;50.960;4.136;2022-08-26T04:26:25;101199.38;;;19.00;100.00
51271;BME280;37744;50.960;4.136;2022-08-26T04:28:52;101201.00;;;19.02;100.00
51271;BME280;37744;50.960;4.136;2022-08-26T04:31:21;101207.38;;;18.85;100.00
51271;BME280;37744;50.960;4.136;2022-08-26T04:33:48;101210.03;;;19.00;100.00
51271;BME280;37744;50.960;4.136;2022-08-26T04:36:20;101207.16;;;19.03;100.00
51271;BME280;37744;50.960;4.136;2022-08-26T04:38:56;101211.75;;;19.01;100.00
51271;BME280;37744;50.960;4.136;2022-08-26T04:41:26;101212.41;;;19.04;100.00
51271;BME280;37744;50.960;4.136;2022-08-26T04:43:55;101204.34;;;19.06;100.00
51271;BME280;37744;50.960;4.136;2022-08-26T04:46:23;101200.88;;;19.04;100.00
51271;BME280;37744;50.960;4.136;2022-08-26T04:48:52;101211.25;;;19.09;100.00
51271;BME280;37744;50.960;4.136;2022-08-26T04:51:20;101211.16;;;19.10;100.00
51271;BME280;37744;50.960;4.136;2022-08-26T04:54:01;101213.91;;;19.09;100.00
51271;BME280;37744;50.960;4.136;2022-08-26T04:56:30;101221.59;;;19.13;100.00
51271;BME280;37744;50.960;4.136;2022-08-26T04:59:00;101214.38;;;19.15;100.00
51271;BME280;37744;50.960;4.136;2022-08-26T05:01:29;101218.94;;;18.99;100.00
51271;BME280;37744;50.960;4.136;2022-08-26T05:03:58;101220.09;;;19.09;100.00
51271;BME280;37744;50.960;4.136;2022-08-26T05:06:28;101226.75;;;19.16;99.92
51271;BME280;37744;50.960;4.136;2022-08-26T05:08:56;101223.31;;;19.14;100.00
51271;BME280;37744;50.960;4.136;2022-08-26T05:11:21;101214.00;;;19.22;100.00
51271;BME280;37744;50.960;4.136;2022-08-26T05:13:47;101225.59;;;19.21;100.00
51271;BME280;37744;50.960;4.136;2022-08-26T05:16:16;101217.41;;;19.24;100.00
51271;BME280;37744;50.960;4.136;2022-08-26T05:18:43;101228.72;;;19.27;99.74
51271;BME280;37744;50.960;4.136;2022-08-26T05:21:19;101230.41;;;19.28;99.89
51271;BME280;37744;50.960;4.136;2022-08-26T05:23:46;101228.63;;;19.14;100.00
51271;BME280;37744;50.960;4.136;2022-08-26T05:26:13;101231.00;;;19.19;100.00
51271;BME280;37744;50.960;4.136;2022-08-26T05:28:40;101232.25;;;19.13;100.00
51271;BME280;37744;50.960;4.136;2022-08-26T05:31:21;101239.50;;;19.11;100.00
51271;BME280;37744;50.960;4.136;2022-08-26T05:33:48;101240.75;;;19.06;100.00
51271;BME280;37744;50.960;4.136;2022-08-26T05:36:24;101238.38;;;19.01;100.00
51271;BME280;37744;50.960;4.136;2022-08-26T05:38:53;101236.84;;;19.11;100.00
51271;BME280;37744;50.960;4.136;2022-08-26T05:41:24;101241.66;;;19.19;100.00
51271;BME280;37744;50.960;4.136;2022-08-26T05:44:00;101228.50;;;19.30;100.00
51271;BME280;37744;50.960;4.136;2022-08-26T05:46:29;101237.00;;;19.23;99.46
51271;BME280;37744;50.960;4.136;2022-08-26T05:48:55;101239.50;;;19.11;99.58
51271;BME280;37744;50.960;4.136;2022-08-26T05:51:22;101244.44;;;19.17;99.33
51271;BME280;37744;50.960;4.136;2022-08-26T05:53:51;101241.41;;;19.09;99.47
51271;BME280;37744;50.960;4.136;2022-08-26T05:56:18;101246.31;;;19.15;99.69
51271;BME280;37744;50.960;4.136;2022-08-26T05:58:44;101247.44;;;19.26;99.38
51271;BME280;37744;50.960;4.136;2022-08-26T06:01:15;101254.75;;;19.37;98.44
51271;BME280;37744;50.960;4.136;2022-08-26T06:03:47;101251.81;;;19.41;98.07
51271;BME280;37744;50.960;4.136;2022-08-26T06:06:20;101260.75;;;19.40;98.12
51271;BME280;37744;50.960;4.136;2022-08-26T06:08:47;101261.84;;;19.51;97.93
51271;BME280;37744;50.960;4.136;2022-08-26T06:11:16;101258.03;;;19.55;98.09
51271;BME280;37744;50.960;4.136;2022-08-26T06:13:48;101256.41;;;19.52;97.62
51271;BME280;37744;50.960;4.136;2022-08-26T06:16:20;101256.13;;;19.57;97.16
51271;BME280;37744;50.960;4.136;2022-08-26T06:18:51;101256.22;;;19.55;97.53
51271;BME280;37744;50.960;4.136;2022-08-26T06:21:18;101253.59;;;19.68;96.87
51271;BME280;37744;50.960;4.136;2022-08-26T06:23:49;101257.13;;;19.69;96.54
51271;BME280;37744;50.960;4.136;2022-08-26T06:26:36;101253.41;;;19.71;96.43
51271;BME280;37744;50.960;4.136;2022-08-26T06:29:04;101259.47;;;19.73;96.08
51271;BME280;37744;50.960;4.136;2022-08-26T06:31:32;101263.91;;;19.60;96.20
51271;BME280;37744;50.960;4.136;2022-08-26T06:33:58;101257.22;;;19.67;96.56
51271;BME280;37744;50.960;4.136;2022-08-26T06:36:26;101263.41;;;19.68;95.88
51271;BME280;37744;50.960;4.136;2022-08-26T06:38:54;101267.03;;;19.67;95.89
51271;BME280;37744;50.960;4.136;2022-08-26T06:41:20;101271.91;;;19.60;95.50
51271;BME280;37744;50.960;4.136;2022-08-26T06:43:48;101272.31;;;19.54;95.86
51271;BME280;37744;50.960;4.136;2022-08-26T06:46:18;101270.19;;;19.59;96.01
51271;BME280;37744;50.960;4.136;2022-08-26T06:48:44;101275.16;;;19.51;96.01
51271;BME280;37744;50.960;4.136;2022-08-26T06:51:13;101270.41;;;19.56;95.90
51271;BME280;37744;50.960;4.136;2022-08-26T06:53:40;101274.69;;;19.58;95.93
51271;BME280;37744;50.960;4.136;2022-08-26T06:56:08;101275.81;;;19.54;95.74
51271;BME280;37744;50.960;4.136;2022-08-26T06:58:37;101281.50;;;19.63;95.46
51271;BME280;37744;50.960;4.136;2022-08-26T07:01:04;101281.44;;;19.64;95.29
51271;BME280;37744;50.960;4.136;2022-08-26T07:03:30;101281.13;;;19.69;94.99
51271;BME280;37744;50.960;4.136;2022-08-26T07:06:03;101276.56;;;19.84;95.37
51271;BME280;37744;50.960;4.136;2022-08-26T07:08:30;101280.19;;;19.83;95.13
51271;BME280;37744;50.960;4.136;2022-08-26T07:10:56;101279.88;;;19.74;93.66
51271;BME280;37744;50.960;4.136;2022-08-26T07:13:23;101280.16;;;19.70;94.12
51271;BME280;37744;50.960;4.136;2022-08-26T07:15:51;101279.16;;;19.58;94.83
51271;BME280;37744;50.960;4.136;2022-08-26T07:18:16;101282.19;;;19.66;94.35
51271;BME280;37744;50.960;4.136;2022-08-26T07:20:48;101284.41;;;19.72;93.99
51271;BME280;37744;50.960;4.136;2022-08-26T07:23:14;101282.19;;;19.79;94.53
51271;BME280;37744;50.960;4.136;2022-08-26T07:25:41;101285.19;;;19.74;94.13
51271;BME280;37744;50.960;4.136;2022-08-26T07:28:08;101285.75;;;19.80;94.23
51271;BME280;37744;50.960;4.136;2022-08-26T07:30:39;101289.72;;;19.87;93.65
51271;BME280;37744;50.960;4.136;2022-08-26T07:33:05;101285.69;;;19.94;93.47
51271;BME280;37744;50.960;4.136;2022-08-26T07:35:31;101292.34;;;20.01;93.37
51271;BME280;37744;50.960;4.136;2022-08-26T07:37:56;101297.59;;;19.88;93.05
51271;BME280;37744;50.960;4.136;2022-08-26T07:40:22;101295.66;;;19.78;92.56
51271;BME280;37744;50.960;4.136;2022-08-26T07:42:48;101290.69;;;19.86;91.94
51271;BME280;37744;50.960;4.136;2022-08-26T07:45:15;101289.38;;;19.79;92.74
51271;BME280;37744;50.960;4.136;2022-08-26T07:47:41;101290.22;;;20.07;91.75
51271;BME280;37744;50.960;4.136;2022-08-26T07:50:07;101298.34;;;20.18;91.25
51271;BME280;37744;50.960;4.136;2022-08-26T07:52:33;101299.53;;;20.14;90.97
51271;BME280;37744;50.960;4.136;2022-08-26T07:55:00;101306.34;;;20.18;91.13
51271;BME280;37744;50.960;4.136;2022-08-26T07:57:35;101314.03;;;20.10;90.49
51271;BME280;37744;50.960;4.136;2022-08-26T08:00:04;101312.50;;;20.06;90.95
51271;BME280;37744;50.960;4.136;2022-08-26T08:02:31;101310.84;;;19.90;91.50
51271;BME280;37744;50.960;4.136;2022-08-26T08:04:57;101308.25;;;19.88;92.08
51271;BME280;37744;50.960;4.136;2022-08-26T08:07:24;101316.66;;;19.97;91.11
51271;BME280;37744;50.960;4.136;2022-08-26T08:09:50;101308.56;;;19.84;91.47
51271;BME280;37744;50.960;4.136;2022-08-26T08:12:18;101309.97;;;19.89;91.84
51271;BME280;37744;50.960;4.136;2022-08-26T08:14:44;101312.38;;;19.94;90.86
51271;BME280;37744;50.960;4.136;2022-08-26T08:17:11;101302.34;;;19.98;90.43
51271;BME280;37744;50.960;4.136;2022-08-26T08:19:37;101308.13;;;20.05;90.33
51271;BME280;37744;50.960;4.136;2022-08-26T08:22:03;101305.59;;;20.03;89.18
51271;BME280;37744;50.960;4.136;2022-08-26T08:24:33;101299.63;;;20.12;89.77
51271;BME280;37744;50.960;4.136;2022-08-26T08:26:59;101307.00;;;20.09;88.85
51271;BME280;37744;50.960;4.136;2022-08-26T08:29:27;101305.63;;;20.42;87.83
51271;BME280;37744;50.960;4.136;2022-08-26T08:31:56;101311.94;;;20.41;87.69
51271;BME280;37744;50.960;4.136;2022-08-26T08:34:22;101309.28;;;20.41;87.59
51271;BME280;37744;50.960;4.136;2022-08-26T08:36:48;101301.69;;;20.48;87.73
51271;BME280;37744;50.960;4.136;2022-08-26T08:39:16;101316.25;;;20.56;87.66
51271;BME280;37744;50.960;4.136;2022-08-26T08:44:37;101311.09;;;20.40;87.13
51271;BME280;37744;50.960;4.136;2022-08-26T08:47:31;101321.88;;;20.39;87.96
51271;BME280;37744;50.960;4.136;2022-08-26T08:50:03;101319.53;;;20.47;87.96
51271;BME280;37744;50.960;4.136;2022-08-26T08:52:33;101316.88;;;20.47;87.10
51271;BME280;37744;50.960;4.136;2022-08-26T08:55:00;101320.69;;;20.43;87.72
51271;BME280;37744;50.960;4.136;2022-08-26T08:57:58;101314.19;;;20.47;88.18
51271;BME280;37744;50.960;4.136;2022-08-26T09:00:22;101320.06;;;20.52;87.90
51271;BME280;37744;50.960;4.136;2022-08-26T09:02:51;101330.44;;;20.44;87.12
51271;BME280;37744;50.960;4.136;2022-08-26T09:07:57;101338.13;;;20.62;86.87
51271;BME280;37744;50.960;4.136;2022-08-26T09:10:38;101332.78;;;20.62;86.26
51271;BME280;37744;50.960;4.136;2022-08-26T09:13:11;101337.91;;;20.65;84.23
51271;BME280;37744;50.960;4.136;2022-08-26T09:21:23;101332.81;;;21.00;83.28
51271;BME280;37744;50.960;4.136;2022-08-26T09:23:49;101333.78;;;21.12;83.07
51271;BME280;37744;50.960;4.136;2022-08-26T09:29:05;101337.97;;;20.91;82.58
51271;BME280;37744;50.960;4.136;2022-08-26T09:31:37;101330.88;;;21.03;82.18
51271;BME280;37744;50.960;4.136;2022-08-26T09:34:21;101328.53;;;21.24;81.78
51271;BME280;37744;50.960;4.136;2022-08-26T09:36:53;101336.00;;;21.19;80.95
51271;BME280;37744;50.960;4.136;2022-08-26T09:39:35;101330.66;;;21.19;80.58
51271;BME280;37744;50.960;4.136;2022-08-26T09:42:11;101334.16;;;21.32;79.78
51271;BME280;37744;50.960;4.136;2022-08-26T09:45:00;101331.63;;;21.55;78.56
51271;BME280;37744;50.960;4.136;2022-08-26T09:47:32;101332.13;;;21.73;77.84
51271;BME280;37744;50.960;4.136;2022-08-26T09:52:32;101337.53;;;22.09;77.52
51271;BME280;37744;50.960;4.136;2022-08-26T09:57:35;101340.16;;;22.33;75.16
51271;BME280;37744;50.960;4.136;2022-08-26T10:00:27;101331.00;;;22.49;75.29
51271;BME280;37744;50.960;4.136;2022-08-26T10:02:54;101333.56;;;22.62;74.64
51271;BME280;37744;50.960;4.136;2022-08-26T10:05:53;101333.63;;;22.37;71.97
51271;BME280;37744;50.960;4.136;2022-08-26T10:10:53;101326.88;;;22.20;74.17
51271;BME280;37744;50.960;4.136;2022-08-26T10:13:42;101317.94;;;22.44;75.14
51271;BME280;37744;50.960;4.136;2022-08-26T10:16:24;101329.44;;;22.58;72.92
51271;BME280;37744;50.960;4.136;2022-08-26T10:19:10;101325.44;;;22.75;72.05
51271;BME280;37744;50.960;4.136;2022-08-26T10:21:43;101322.69;;;22.88;72.29
51271;BME280;37744;50.960;4.136;2022-08-26T10:24:21;101322.91;;;22.85;70.94
51271;BME280;37744;50.960;4.136;2022-08-26T10:29:46;101320.09;;;22.86;71.45
51271;BME280;37744;50.960;4.136;2022-08-26T10:35:10;101313.91;;;22.74;68.90
51271;BME280;37744;50.960;4.136;2022-08-26T10:37:40;101329.47;;;22.80;68.20
51271;BME280;37744;50.960;4.136;2022-08-26T10:40:16;101322.91;;;22.96;67.89
51271;BME280;37744;50.960;4.136;2022-08-26T10:42:49;101323.63;;;22.75;70.20
51271;BME280;37744;50.960;4.136;2022-08-26T10:45:20;101324.63;;;22.86;70.68
51271;BME280;37744;50.960;4.136;2022-08-26T10:47:56;101319.97;;;22.65;70.85
51271;BME280;37744;50.960;4.136;2022-08-26T10:50:37;101326.19;;;22.30;72.60
51271;BME280;37744;50.960;4.136;2022-08-26T10:53:20;101320.09;;;22.39;72.32
51271;BME280;37744;50.960;4.136;2022-08-26T10:59:09;101322.69;;;22.05;71.88
51271;BME280;37744;50.960;4.136;2022-08-26T11:05:21;101317.22;;;22.42;70.80
51271;BME280;37744;50.960;4.136;2022-08-26T11:07:41;101315.69;;;22.51;71.31
51271;BME280;37744;50.960;4.136;2022-08-26T11:13:09;101317.94;;;22.80;67.64
51271;BME280;37744;50.960;4.136;2022-08-26T11:18:10;101309.25;;;22.65;68.46
51271;BME280;37744;50.960;4.136;2022-08-26T11:20:45;101313.50;;;22.67;68.06
51271;BME280;37744;50.960;4.136;2022-08-26T11:28:46;101309.75;;;23.04;67.31
51271;BME280;37744;50.960;4.136;2022-08-26T11:33:51;101312.19;;;23.19;67.02
51271;BME280;37744;50.960;4.136;2022-08-26T11:36:41;101312.78;;;23.45;67.46
51271;BME280;37744;50.960;4.136;2022-08-26T11:42:17;101308.75;;;23.51;66.61
51271;BME280;37744;50.960;4.136;2022-08-26T11:44:47;101311.44;;;23.40;65.76
51271;BME280;37744;50.960;4.136;2022-08-26T11:47:15;101309.31;;;23.66;65.40
51271;BME280;37744;50.960;4.136;2022-08-26T11:49:41;101310.38;;;23.75;65.13
51271;BME280;37744;50.960;4.136;2022-08-26T11:52:14;101305.19;;;24.06;65.20
51271;BME280;37744;50.960;4.136;2022-08-26T11:55:02;101304.16;;;23.86;63.04
51271;BME280;37744;50.960;4.136;2022-08-26T11:57:31;101300.41;;;24.10;61.03
51271;BME280;37744;50.960;4.136;2022-08-26T11:59:57;101299.25;;;24.45;62.44
51271;BME280;37744;50.960;4.136;2022-08-26T12:02:24;101297.47;;;24.34;62.28
51271;BME280;37744;50.960;4.136;2022-08-26T12:04:53;101289.69;;;24.10;61.53
51271;BME280;37744;50.960;4.136;2022-08-26T12:07:26;101287.44;;;23.82;62.80
51271;BME280;37744;50.960;4.136;2022-08-26T12:10:00;101289.91;;;23.74;64.11
51271;BME280;37744;50.960;4.136;2022-08-26T12:12:35;101297.22;;;23.39;63.85
51271;BME280;37744;50.960;4.136;2022-08-26T12:15:18;101296.34;;;23.39;63.51
51271;BME280;37744;50.960;4.136;2022-08-26T12:17:45;101294.28;;;23.31;64.23
51271;BME280;37744;50.960;4.136;2022-08-26T12:20:36;101293.06;;;23.35;64.71
51271;BME280;37744;50.960;4.136;2022-08-26T12:23:40;101291.41;;;23.67;63.83
51271;BME280;37744;50.960;4.136;2022-08-26T12:28:51;101286.53;;;23.93;62.90
51271;BME280;37744;50.960;4.136;2022-08-26T12:31:38;101297.38;;;23.59;63.63
51271;BME280;37744;50.960;4.136;2022-08-26T12:34:07;101294.66;;;23.70;63.26
51271;BME280;37744;50.960;4.136;2022-08-26T12:36:43;101288.03;;;23.53;62.83
51271;BME280;37744;50.960;4.136;2022-08-26T12:39:33;101289.03;;;23.18;64.12
51271;BME280;37744;50.960;4.136;2022-08-26T12:42:39;101300.22;;;23.57;65.04
51271;BME280;37744;50.960;4.136;2022-08-26T12:45:08;101299.53;;;23.44;64.35
51271;BME280;37744;50.960;4.136;2022-08-26T12:47:40;101298.41;;;23.23;65.06
51271;BME280;37744;50.960;4.136;2022-08-26T13:00:45;101295.94;;;23.87;63.90
51271;BME280;37744;50.960;4.136;2022-08-26T13:14:14;101293.09;;;24.00;63.17
51271;BME280;37744;50.960;4.136;2022-08-26T13:16:40;101295.66;;;24.13;63.43
51271;BME280;37744;50.960;4.136;2022-08-26T13:19:11;101287.38;;;24.05;62.51
51271;BME280;37744;50.960;4.136;2022-08-26T13:21:48;101292.06;;;23.91;62.70
51271;BME280;37744;50.960;4.136;2022-08-26T13:24:44;101295.72;;;23.90;63.03
51271;BME280;37744;50.960;4.136;2022-08-26T13:27:11;101291.78;;;23.95;62.72
51271;BME280;37744;50.960;4.136;2022-08-26T13:29:37;101290.84;;;23.84;62.10
51271;BME280;37744;50.960;4.136;2022-08-26T13:32:05;101288.97;;;23.96;61.66
51271;BME280;37744;50.960;4.136;2022-08-26T13:34:30;101285.44;;;23.96;60.95
51271;BME280;37744;50.960;4.136;2022-08-26T13:36:56;101285.41;;;24.07;61.74
51271;BME280;37744;50.960;4.136;2022-08-26T13:39:25;101280.69;;;24.20;61.22
51271;BME280;37744;50.960;4.136;2022-08-26T13:41:51;101288.47;;;24.24;61.72
51271;BME280;37744;50.960;4.136;2022-08-26T13:44:18;101273.16;;;24.35;62.09
51271;BME280;37744;50.960;4.136;2022-08-26T13:46:49;101278.00;;;24.20;61.52
51271;BME280;37744;50.960;4.136;2022-08-26T13:49:16;101276.28;;;23.98;63.49
51271;BME280;37744;50.960;4.136;2022-08-26T13:51:43;101289.91;;;23.74;62.27
51271;BME280;37744;50.960;4.136;2022-08-26T13:54:09;101289.97;;;23.51;62.48
51271;BME280;37744;50.960;4.136;2022-08-26T13:56:34;101280.50;;;23.47;63.08
51271;BME280;37744;50.960;4.136;2022-08-26T13:59:01;101279.53;;;23.25;63.40
51271;BME280;37744;50.960;4.136;2022-08-26T14:01:29;101282.47;;;23.11;63.79
51271;BME280;37744;50.960;4.136;2022-08-26T14:03:58;101281.25;;;23.03;64.04
51271;BME280;37744;50.960;4.136;2022-08-26T14:06:23;101279.28;;;23.40;63.42
51271;BME280;37744;50.960;4.136;2022-08-26T14:08:51;101277.56;;;23.50;63.73
51271;BME280;37744;50.960;4.136;2022-08-26T14:11:18;101278.50;;;23.60;63.46
51271;BME280;37744;50.960;4.136;2022-08-26T14:13:43;101272.47;;;24.01;62.23
51271;BME280;37744;50.960;4.136;2022-08-26T14:16:21;101271.78;;;24.94;59.39
51271;BME280;37744;50.960;4.136;2022-08-26T14:18:47;101283.56;;;24.50;59.73
51271;BME280;37744;50.960;4.136;2022-08-26T14:21:19;101277.19;;;25.03;58.77
51271;BME280;37744;50.960;4.136;2022-08-26T14:23:51;101281.84;;;24.70;59.94